South Bisbee, Arizona
Current Conditions -  °F | °C
As of 1:56 PM on Friday 31 Oct 2014 (Local Time) from KDUG Reporting Station
Clear Clear  
Wind Chill: 82°   Ceiling: Unl
Heat Index: 82°   Visibility: 10mi
Dew Point: 45°   Wind: 21mph
Humidity: 27%   Direction: 150°SSE
Pressure: 30.05"   Gusts: 28mph
Location:  31.4799°N, 109.96°W
Report Text: KDUG 312056Z AUTO 15018G24KT 10SM CLR 28/07 A3005 RMK AO2 SLP114 T02780072 56025
Loading
Personal Weather Stations






























Interactive Weather Map
Tropical Storm Tracking
New forecast layout! Learn more

10-Day Weather Forecast

Advertisements
Track Severe Weather on mobile